KMML/MML METAR and TAF weather

Enter ICAO airport designator
Station Type Date Time Source
KMML METAR 2019/12/08 17:12 UTC NOAA

KMML 081712Z AUTO 35010KT 4SM BR OVC004 M02/M03 A2983 RMK AO2 FZRANO


Station Type Date Time Source
KMML Decoded METAR 2019/12/08 17:12 UTC NOAA

Marshall, Southwest Minnesota Regional Airport - Marshall/Ryan Field, MN, United States (KMML) 44-27N 095-49W
Dec 08, 2019 - 12:12 PM EST / 2019.12.08 1712 UTC
Wind: from the N (350 degrees) at 12 MPH (10 KT):0
Visibility: 4 mile(s):0
Sky conditions: overcast
Weather: mist
Temperature: 28 F (-2 C)
Windchill: 17 F (-8 C):1
Dew Point: 26 F (-3 C)
Relative Humidity: 92%
Pressure (altimeter): 29.83 in. Hg (1010 hPa)
ob: KMML 081712Z AUTO 35010KT 4SM BR OVC004 M02/M03 A2983 RMK AO2 FZRANO
cycle: 17

Station Type Date Time Source
KMML TAF UTC NOAA

Error!

Example: see airport list